header
chart

Reported and forecast weather at local airports

Important: not to be used for flight planning purposes.


EGBB METAR fetched   Thursday 4th Mar @ 01:07:09
EGBB 040050Z AUTO 02007KT 3200 -RA OVC004/// 03/02 Q1025 RERA

EGCC METAR fetched   Thursday 4th Mar @ 01:07:04
EGCC 040050Z AUTO 06005KT 2700 HZ BKN005 OVC009 02/02 Q1026

EGGP METAR fetched   Thursday 4th Mar @ 01:07:05
EGGP 040050Z AUTO 06007KT 5000 HZ FEW012/// OVC017/// 04/03 Q1026

EGNH METAR fetched   Thursday 4th Mar @ 01:07:07
EGNH 032050Z 09010KT 6000 BKN018 03/01 Q1026

EGNM METAR fetched   Thursday 4th Mar @ 01:07:08
EGNM 011650Z 09005KT 3000 BR FEW003 BKN004 04/03 Q1032

EGOV METAR fetched   Thursday 4th Mar @ 01:07:10
EGOV 040050Z AUTO 35005KT 3900 HZ OVC013/// 04/02 Q1026


EGBB TAF fetched   Thursday 4th Mar @ 01:07:10
TAF EGBB 031704Z 0318/0418 12003KT 2000 BR BKN006 TEMPO 0318/0323 6000 SHRA BKN004 BECMG 0323/0402 BKN004 PROB30 TEMPO 0323/0404 SHRA PROB30 0404/0406 6000 NSW BKN008 BECMG 0406/0409 6000 NSW BKN008 BECMG 0410/0412 9999 TEMPO 0410/0412 BKN014 BECMG 0412/0415 BKN014 BECMG 0415/0418 SCT016 PROB30 TEMPO 0416/0418 7000 SHRA

EGCC TAF fetched   Thursday 4th Mar @ 01:07:04
TAF AMD EGCC 032129Z 0321/0424 06005KT 6000 SCT012 TEMPO 0321/0412 4000 BR BKN012 PROB40 0321/0410 BKN006 BECMG 0407/0410 9999 TEMPO 0415/0419 7000 SHRA BKN014

EGGP TAF fetched   Thursday 4th Mar @ 01:07:06
TAF TAF EGGP 031704Z 0318/0418 10005KT 5000 HZ SCT009 TEMPO 0318/0409 4000 BR BKN009 PROB40 0322/0410 BKN006 BECMG 0407/0410 9999 NSW TEMPO 0415/0418 7000 SHRA BKN014

EGNM TAF fetched   Thursday 4th Mar @ 01:07:08
TAF EGNM 011810Z 0118/0218 CNL= TAF ETIC 011800Z 0118/0224 08006KT 9999 SKC QNH3047INS BECMG 0200/0201 VRB06KT 8000 BR SKC QNH3047INS TEMPO 0203/0206 3200 BR BECMG 0209/0210 11006KT 9999 NSW SKC QNH3050INS BECMG 0219/0220 VRB06KT 8000 BR SKC QNH3047INS TX09/0214Z TN00/0202Z

EGOV TAF fetched   Thursday 4th Mar @ 01:07:11
TAF TAF EGOV 190525Z 1906/1918 04008KT CAVOK PROB30 TEMPO 1906/1912 6000 SHRA TEMPO 1912/1915 4000 +SHRA SCT020 BKN030CB PROB30 TEMPO 1913/1915 VRBG20G30KT 2500 TSGR BKN012

Every effort is made to ensure that this information is free from errors but as it is provided by a third party the accuracy of the reports cannot be guaranteed.